Time;durP1;ratioP1;P1;durP2;ratioP2;P2;SDS_P1;SDS_P2;PMS_P1;PMS_P2;Temp;Humidity;BMP_temperature;BMP_pressure;BME280_temperature;BME280_humidity;BME280_pressure;Samples;Min_cycle;Max_cycle;Signal;HPM_P1;HPM_P2
2023/03/18 00:00:40;;;;;;;1.25;1.00;;;;;;;11.88;81.04;100694.41;5026742;28;20033;-65
2023/03/18 00:03:06;;;;;;;2.05;0.80;;;;;;;11.82;83.38;100690.72;5044815;28;20029;-66
2023/03/18 00:05:33;;;;;;;0.70;0.70;;;;;;;11.83;81.59;100686.03;5057666;28;20021;-64
2023/03/18 00:07:59;;;;;;;1.25;0.80;;;;;;;11.82;81.54;100676.94;5043033;28;20079;-66
2023/03/18 00:10:24;;;;;;;0.90;0.90;;;;;;;11.81;81.39;100675.25;5052071;28;20130;-64
2023/03/18 00:12:50;;;;;;;0.82;0.80;;;;;;;11.80;81.95;100670.81;5047565;28;20032;-66
2023/03/18 00:15:17;;;;;;;0.80;0.80;;;;;;;11.78;82.53;100666.63;5050342;28;20072;-66
2023/03/18 00:17:42;;;;;;;0.80;0.80;;;;;;;11.75;84.30;100672.63;5047390;28;20026;-66
2023/03/18 00:20:11;;;;;;;1.02;0.82;;;;;;;11.65;84.40;100674.06;5049047;28;20024;-66
2023/03/18 00:22:37;;;;;;;0.85;0.85;;;;;;;11.65;83.87;100673.22;5048926;28;20021;-66
2023/03/18 00:25:05;;;;;;;0.93;0.82;;;;;;;11.66;83.27;100680.44;5049761;28;20047;-65
2023/03/18 00:27:31;;;;;;;1.10;1.00;;;;;;;11.68;82.90;100683.75;5047324;28;20087;-67
2023/03/18 00:29:57;;;;;;;1.17;0.95;;;;;;;11.69;82.80;100685.44;5046944;28;20491;-62
2023/03/18 00:32:25;;;;;;;0.85;0.80;;;;;;;11.66;83.54;100686.75;5052048;28;20039;-66
2023/03/18 00:34:50;;;;;;;1.10;1.00;;;;;;;11.68;83.19;100692.84;5066376;28;20024;-66
2023/03/18 00:37:28;;;;;;;1.20;1.10;;;;;;;11.70;83.23;100692.59;5063611;28;20029;-63
2023/03/18 00:39:54;;;;;;;;;;;;;;;11.76;80.66;100690.78;5061322;28;20013;-63
2023/03/18 00:42:19;;;;;;;1.23;1.00;;;;;;;11.62;84.26;100701.25;5049427;28;19969;-67
2023/03/18 00:44:45;;;;;;;0.93;0.88;;;;;;;11.64;84.02;100704.56;5049874;28;20349;-66
2023/03/18 00:47:11;;;;;;;1.02;0.93;;;;;;;11.65;83.35;100711.75;5046878;28;20170;-66
2023/03/18 00:49:36;;;;;;;1.15;0.90;;;;;;;11.65;83.33;100706.25;5063726;28;20527;-66
2023/03/18 00:52:02;;;;;;;1.13;0.93;;;;;;;11.65;84.26;100711.75;5052437;28;20036;-64
2023/03/18 00:54:27;;;;;;;1.83;0.98;;;;;;;11.65;83.98;100701.56;5057699;28;20107;-66
2023/03/18 00:56:52;;;;;;;0.82;0.80;;;;;;;11.65;84.76;100706.25;5062654;28;20056;-66
2023/03/18 00:59:18;;;;;;;1.00;0.90;;;;;;;11.68;83.95;100705.78;5058805;28;20539;-66
2023/03/18 01:01:43;;;;;;;1.33;0.90;;;;;;;11.69;84.39;100711.03;5058293;28;20040;-65
2023/03/18 01:04:09;;;;;;;1.40;1.00;;;;;;;11.68;84.04;100709.34;5067795;28;20029;-64
2023/03/18 01:06:36;;;;;;;1.02;0.80;;;;;;;11.67;84.26;100704.94;5057107;28;20137;-67
2023/03/18 01:09:04;;;;;;;1.52;0.88;;;;;;;11.67;84.68;100713.19;5060819;28;20031;-63
2023/03/18 01:11:32;;;;;;;0.88;0.88;;;;;;;11.66;85.21;100708.78;5065882;28;20477;-64
2023/03/18 01:13:58;;;;;;;1.42;0.75;;;;;;;11.68;84.41;100709.34;5057048;28;20068;-66
2023/03/18 01:16:23;;;;;;;1.00;1.00;;;;;;;11.68;84.98;100711.28;5057176;28;20033;-66
2023/03/18 01:18:50;;;;;;;0.90;0.90;;;;;;;11.68;84.91;100708.53;5050859;28;20020;-66
2023/03/18 01:21:16;;;;;;;1.23;1.00;;;;;;;11.67;85.15;100710.44;5052337;28;20480;-63
2023/03/18 01:23:42;;;;;;;0.98;0.90;;;;;;;11.66;85.21;100707.94;5057343;28;20033;-66
2023/03/18 01:26:09;;;;;;;0.90;0.90;;;;;;;11.68;85.52;100709.34;5049909;28;20028;-62
2023/03/18 01:28:35;;;;;;;1.00;0.90;;;;;;;11.68;85.60;100706.59;5046583;28;20588;-66
2023/03/18 01:31:01;;;;;;;1.00;1.00;;;;;;;11.65;85.92;100706.25;5067977;28;20040;-66
2023/03/18 01:33:28;;;;;;;0.90;0.80;;;;;;;11.67;86.12;100704.09;5066194;28;20032;-66
2023/03/18 01:35:56;;;;;;;1.60;0.90;;;;;;;11.69;86.30;100705.53;5057817;28;20029;-63
2023/03/18 01:38:22;;;;;;;1.15;1.02;;;;;;;11.68;86.52;100703.84;5040165;28;20508;-66
2023/03/18 01:40:49;;;;;;;1.40;1.00;;;;;;;11.67;86.99;100701.34;5069942;28;20024;-66
2023/03/18 01:43:22;;;;;;;1.00;0.90;;;;;;;11.68;87.51;100708.53;5052577;28;20490;-65
2023/03/18 01:45:50;;;;;;;1.60;1.00;;;;;;;11.69;87.39;100707.44;5066793;28;20028;-63
2023/03/18 01:48:18;;;;;;;1.20;0.90;;;;;;;11.68;87.79;100705.78;5053578;28;20043;-64
2023/03/18 01:50:46;;;;;;;0.77;0.75;;;;;;;11.68;87.86;100706.59;5054751;28;20497;-65
2023/03/18 01:53:14;;;;;;;1.33;0.90;;;;;;;11.65;88.62;100700.75;5056166;28;20109;-66
2023/03/18 01:55:41;;;;;;;1.10;1.00;;;;;;;11.63;89.45;100701.00;5065134;28;20692;-65
2023/03/18 01:58:14;;;;;;;1.73;1.13;;;;;;;11.61;90.80;100705.06;5053933;28;20022;-65
2023/03/18 02:00:45;;;;;;;1.73;1.05;;;;;;;11.56;92.56;100705.78;5047806;28;20116;-64
2023/03/18 02:03:11;;;;;;;1.10;1.00;;;;;;;11.54;93.56;100698.84;5056208;28;20058;-66
2023/03/18 02:05:38;;;;;;;1.50;1.10;;;;;;;11.53;94.41;100708.19;5064955;28;20025;-67
2023/03/18 02:08:04;;;;;;;1.40;1.20;;;;;;;11.47;96.55;100711.91;5058900;28;20614;-66
2023/03/18 02:10:30;;;;;;;1.52;1.27;;;;;;;11.41;98.26;100709.03;5054004;28;20031;-66
2023/03/18 02:13:04;;;;;;;1.20;1.10;;;;;;;11.38;100.00;100709.50;5061557;28;20112;-66
2023/03/18 02:15:31;;;;;;;1.35;1.08;;;;;;;11.35;100.00;100699.00;5055952;28;20349;-66
2023/03/18 02:18:02;;;;;;;1.38;1.15;;;;;;;11.32;100.00;100696.72;5061157;28;20037;-66
2023/03/18 02:20:52;;;;;;;1.15;1.00;;;;;;;11.22;100.00;100701.97;5056425;28;20414;-66
2023/03/18 02:24:05;;;;;;;1.25;1.10;;;;;;;11.18;100.00;100701.59;5057779;28;20025;-67
2023/03/18 02:26:42;;;;;;;1.33;1.00;;;;;;;11.12;100.00;100709.97;5055849;28;20032;-63
2023/03/18 02:29:11;;;;;;;1.27;1.10;;;;;;;11.06;100.00;100706.28;5064597;28;20475;-66
2023/03/18 02:31:36;;;;;;;;;;;;;;;11.16;100.00;100719.44;5050211;28;20116;-66
2023/03/18 02:34:06;;;;;;;1.50;1.10;;;;;;;11.00;100.00;100718.22;5061834;28;20533;-65
2023/03/18 02:36:33;;;;;;;1.70;1.20;;;;;;;10.95;100.00;100717.22;5056035;28;20024;-64
2023/03/18 02:38:59;;;;;;;1.35;1.25;;;;;;;10.91;100.00;100722.38;5092610;23;20065;-66
2023/03/18 02:41:28;;;;;;;1.25;1.15;;;;;;;10.88;100.00;100723.66;5042972;28;20029;-66
2023/03/18 02:43:54;;;;;;;1.48;1.23;;;;;;;10.87;100.00;100726.66;5037800;28;20025;-65
2023/03/18 02:46:32;;;;;;;1.65;1.30;;;;;;;10.85;100.00;100721.41;5044943;28;20036;-66
2023/03/18 02:49:00;;;;;;;1.88;1.30;;;;;;;10.81;100.00;100728.44;5046604;28;20364;-65
2023/03/18 02:51:26;;;;;;;1.83;1.40;;;;;;;10.81;100.00;100724.88;5037365;28;20407;-66
2023/03/18 02:53:56;;;;;;;1.30;1.20;;;;;;;10.78;100.00;100737.16;5038074;28;20515;-66
2023/03/18 02:56:22;;;;;;;1.48;1.38;;;;;;;10.76;100.00;100736.56;5044760;28;20071;-66
2023/03/18 02:58:47;;;;;;;1.42;1.25;;;;;;;10.77;100.00;100740.13;5045729;28;20367;-64
2023/03/18 03:01:13;;;;;;;1.40;1.30;;;;;;;10.75;100.00;100739.53;5045161;28;20029;-66
2023/03/18 03:03:39;;;;;;;1.50;1.30;;;;;;;10.74;100.00;100744.16;5044382;28;20025;-66
2023/03/18 03:06:05;;;;;;;1.45;1.25;;;;;;;10.71;100.00;100744.66;5038196;28;20029;-63
2023/03/18 03:08:30;;;;;;;1.40;1.30;;;;;;;10.70;100.00;100748.47;5045451;28;20075;-66
2023/03/18 03:10:56;;;;;;;1.88;1.25;;;;;;;10.68;100.00;100747.88;5044463;28;20082;-66
2023/03/18 03:13:23;;;;;;;2.10;1.50;;;;;;;10.68;100.00;100752.53;5044790;28;20033;-66
2023/03/18 03:15:48;;;;;;;1.50;1.40;;;;;;;10.66;100.00;100755.50;5037642;28;20025;-66
2023/03/18 03:18:14;;;;;;;1.40;1.30;;;;;;;10.66;100.00;100761.00;5044988;28;20355;-66
2023/03/18 03:20:40;;;;;;;2.00;1.40;;;;;;;10.64;100.00;100765.88;5044331;28;20021;-65
2023/03/18 03:23:09;;;;;;;1.92;1.30;;;;;;;10.64;100.00;100768.63;5039465;28;20037;-66
2023/03/18 03:25:35;;;;;;;1.40;1.30;;;;;;;10.63;100.00;100770.53;5041339;28;20021;-66
2023/03/18 03:28:01;;;;;;;1.77;1.38;;;;;;;10.62;100.00;100768.03;5041345;28;20029;-66
2023/03/18 03:30:27;;;;;;;1.30;1.20;;;;;;;10.60;100.00;100767.44;5032785;28;20026;-67
2023/03/18 03:32:52;;;;;;;1.73;1.50;;;;;;;10.62;100.00;100768.03;5044016;28;20372;-65
2023/03/18 03:35:19;;;;;;;1.75;1.30;;;;;;;10.61;100.00;100769.94;5044339;28;20036;-66
2023/03/18 03:37:45;;;;;;;1.70;1.50;;;;;;;10.58;100.00;100770.41;5033635;28;20083;-65
2023/03/18 03:40:14;;;;;;;1.70;1.60;;;;;;;10.58;100.00;100769.56;5041784;28;20036;-66
2023/03/18 03:42:40;;;;;;;1.45;1.35;;;;;;;10.58;100.00;100777.78;5036334;28;20577;-66
2023/03/18 03:45:07;;;;;;;1.55;1.33;;;;;;;10.57;100.00;100778.88;5038501;28;20116;-67
2023/03/18 03:47:32;;;;;;;1.42;1.33;;;;;;;10.57;100.00;100767.88;5036673;28;20047;-64
2023/03/18 03:49:57;;;;;;;1.45;1.35;;;;;;;10.57;100.00;100776.13;5042582;28;20033;-66
2023/03/18 03:52:23;;;;;;;1.42;1.30;;;;;;;10.58;100.00;100769.56;5047225;28;20112;-64
2023/03/18 03:54:49;;;;;;;1.60;1.48;;;;;;;10.57;100.00;100768.72;5047944;28;20025;-66
2023/03/18 03:57:16;;;;;;;1.63;1.50;;;;;;;10.54;100.00;100765.59;5049399;28;20047;-64
2023/03/18 03:59:41;;;;;;;1.60;1.42;;;;;;;10.53;100.00;100766.66;5042768;28;20041;-65
2023/03/18 04:02:07;;;;;;;1.60;1.23;;;;;;;10.55;100.00;100775.53;5047588;28;20036;-66
2023/03/18 04:04:33;;;;;;;1.63;1.50;;;;;;;10.54;100.00;100779.31;5048388;28;20025;-66
2023/03/18 04:06:58;;;;;;;1.40;1.30;;;;;;;10.52;100.00;100773.25;5047145;28;20040;-65
2023/03/18 04:09:24;;;;;;;1.38;1.27;;;;;;;10.50;100.00;100776.22;5041271;28;20029;-66
2023/03/18 04:11:49;;;;;;;2.13;1.35;;;;;;;10.51;100.00;100774.31;5040453;28;20473;-66
2023/03/18 04:14:15;;;;;;;1.70;1.60;;;;;;;10.50;100.00;100770.75;5046768;28;20029;-66
2023/03/18 04:16:40;;;;;;;1.85;1.58;;;;;;;10.49;100.00;100779.19;5048239;28;20025;-66
2023/03/18 04:19:06;;;;;;;1.52;1.42;;;;;;;10.49;100.00;100784.69;5047607;28;21054;-64
2023/03/18 04:21:31;;;;;;;1.40;1.30;;;;;;;10.48;100.00;100783.00;5046891;28;20029;-64
2023/03/18 04:23:57;;;;;;;1.50;1.40;;;;;;;10.49;100.00;100773.69;5048194;28;20036;-66
2023/03/18 04:26:22;;;;;;;1.63;1.52;;;;;;;10.47;100.00;100784.91;5042223;28;20021;-63
2023/03/18 04:28:47;;;;;;;1.65;1.40;;;;;;;10.47;100.00;100776.69;5043185;28;20438;-64
2023/03/18 04:31:13;;;;;;;1.95;1.40;;;;;;;10.47;100.00;100778.59;5047116;28;20031;-65
2023/03/18 04:33:39;;;;;;;1.60;1.50;;;;;;;10.47;100.00;100782.16;5048420;28;20032;-66
2023/03/18 04:36:05;;;;;;;1.60;1.50;;;;;;;10.47;100.00;100778.59;5040351;28;20022;-66
2023/03/18 04:38:30;;;;;;;1.65;1.55;;;;;;;10.45;100.00;100780.75;5041918;28;20502;-66
2023/03/18 04:40:55;;;;;;;1.58;1.48;;;;;;;10.46;100.00;100785.16;5044396;28;20028;-63
2023/03/18 04:43:21;;;;;;;1.80;1.60;;;;;;;10.45;100.00;100789.81;5040129;28;20040;-65
2023/03/18 04:45:46;;;;;;;1.73;1.50;;;;;;;10.49;100.00;100790.16;5048342;28;20104;-66
2023/03/18 04:48:12;;;;;;;1.63;1.52;;;;;;;10.48;100.00;100794.00;5038792;28;20021;-66
2023/03/18 04:50:37;;;;;;;1.60;1.30;;;;;;;10.48;100.00;100792.06;5046932;28;20389;-66
2023/03/18 04:53:02;;;;;;;1.60;1.50;;;;;;;10.47;100.00;100792.31;5047406;28;20029;-65
2023/03/18 04:55:28;;;;;;;1.73;1.63;;;;;;;10.49;100.00;100798.41;5048416;28;20087;-66
2023/03/18 04:57:53;;;;;;;1.48;1.38;;;;;;;10.48;100.00;100796.72;5046488;28;20037;-65
2023/03/18 05:00:22;;;;;;;1.42;1.33;;;;;;;10.50;100.00;100802.84;5047034;28;20024;-63
2023/03/18 05:02:48;;;;;;;1.95;1.52;;;;;;;10.48;100.00;100807.72;5039934;28;20040;-65
2023/03/18 05:05:13;;;;;;;1.70;1.60;;;;;;;10.46;100.00;100805.22;5044858;28;20590;-66
2023/03/18 05:07:39;;;;;;;1.60;1.50;;;;;;;10.47;100.00;100801.41;5042396;28;20495;-65
2023/03/18 05:10:05;;;;;;;1.58;1.48;;;;;;;10.46;100.00;100801.63;5043113;28;20424;-66
2023/03/18 05:12:31;;;;;;;1.70;1.60;;;;;;;10.47;100.00;100819.78;5047535;28;20036;-63
2023/03/18 05:14:57;;;;;;;1.60;1.50;;;;;;;10.46;100.00;100812.63;5046685;28;20033;-66
2023/03/18 05:17:22;;;;;;;1.67;1.58;;;;;;;10.45;100.00;100821.94;5039296;28;20021;-65
2023/03/18 05:19:48;;;;;;;2.08;1.60;;;;;;;10.45;100.00;100816.44;5046262;28;20032;-63
2023/03/18 05:22:16;;;;;;;1.40;1.30;;;;;;;10.46;100.00;100823.59;5045484;28;20078;-66
2023/03/18 05:24:42;;;;;;;;;;;;;;;10.52;100.00;100817.19;5046628;28;20404;-66
2023/03/18 05:27:09;;;;;;;1.70;1.60;;;;;;;10.46;100.00;100818.94;5039170;28;19924;-63
2023/03/18 05:29:36;;;;;;;1.52;1.42;;;;;;;10.44;100.00;100823.84;5045764;28;20116;-66
2023/03/18 05:32:03;;;;;;;1.60;1.50;;;;;;;10.44;100.00;100826.59;5046071;28;20060;-65
2023/03/18 05:34:28;;;;;;;2.58;1.60;;;;;;;10.44;100.00;100825.72;5044109;28;20029;-66
2023/03/18 05:36:53;;;;;;;1.70;1.60;;;;;;;10.43;100.00;100813.06;5035290;28;20024;-66
2023/03/18 05:39:19;;;;;;;1.55;1.45;;;;;;;10.39;100.00;100808.06;5045972;28;20045;-66
2023/03/18 05:41:44;;;;;;;1.65;1.55;;;;;;;10.36;100.00;100805.75;5047102;28;20040;-64
2023/03/18 05:44:09;;;;;;;1.60;1.50;;;;;;;10.29;100.00;100809.63;5038530;28;20372;-66
2023/03/18 05:46:35;;;;;;;1.45;1.35;;;;;;;10.23;100.00;100808.63;5046309;28;20021;-66
2023/03/18 05:49:00;;;;;;;1.60;1.50;;;;;;;10.21;100.00;100815.41;5044478;28;20029;-65
2023/03/18 05:51:26;;;;;;;1.58;1.48;;;;;;;10.18;100.00;100821.34;5041163;28;20037;-65
2023/03/18 05:53:52;;;;;;;1.60;1.45;;;;;;;10.16;100.00;100821.59;5045728;28;20041;-65
2023/03/18 05:56:17;;;;;;;1.83;1.50;;;;;;;10.18;100.00;100821.34;5038968;28;20028;-66
2023/03/18 05:58:43;;;;;;;1.70;1.60;;;;;;;10.20;100.00;100839.28;5045250;28;20029;-65
2023/03/18 06:01:08;;;;;;;1.63;1.52;;;;;;;10.22;100.00;100847.28;5045552;28;20029;-66
2023/03/18 06:03:34;;;;;;;1.60;1.50;;;;;;;10.25;100.00;100853.19;5046415;28;20491;-65
2023/03/18 06:06:00;;;;;;;1.55;1.45;;;;;;;10.26;100.00;100857.63;5039115;28;20458;-66
2023/03/18 06:08:26;;;;;;;1.98;1.50;;;;;;;10.24;100.00;100848.78;5046575;28;20021;-65
2023/03/18 06:10:51;;;;;;;1.80;1.70;;;;;;;10.27;100.00;100858.44;5036470;28;20126;-63
2023/03/18 06:13:17;;;;;;;1.60;1.50;;;;;;;10.26;100.00;100857.63;5046269;28;20040;-65
2023/03/18 06:15:43;;;;;;;1.50;1.40;;;;;;;10.27;100.00;100863.94;5038819;28;20025;-65
2023/03/18 06:18:09;;;;;;;1.50;1.40;;;;;;;10.29;100.00;100870.91;5045171;28;20025;-66
2023/03/18 06:20:35;;;;;;;1.73;1.50;;;;;;;10.26;100.00;100860.34;5039772;28;20112;-65
2023/03/18 06:23:00;;;;;;;1.50;1.40;;;;;;;10.28;100.00;100860.13;5044626;28;20115;-63
2023/03/18 06:25:25;;;;;;;1.50;1.40;;;;;;;10.26;100.00;100852.13;5042660;28;20033;-63
2023/03/18 06:27:51;;;;;;;1.50;1.40;;;;;;;10.21;100.00;100851.94;5040227;28;20578;-64
2023/03/18 06:30:17;;;;;;;1.85;1.75;;;;;;;10.21;100.00;100862.06;5044045;28;20025;-65
2023/03/18 06:32:43;;;;;;;1.55;1.45;;;;;;;10.19;100.00;100861.44;5046124;28;20025;-66
2023/03/18 06:35:09;;;;;;;1.63;1.50;;;;;;;10.17;100.00;100860.84;5044028;28;20108;-65
2023/03/18 06:37:35;;;;;;;1.60;1.50;;;;;;;10.12;100.00;100858.78;5039153;28;20086;-65
2023/03/18 06:40:01;;;;;;;1.80;1.60;;;;;;;10.13;100.00;100853.06;5043111;28;20048;-64
2023/03/18 06:42:26;;;;;;;1.65;1.55;;;;;;;10.14;100.00;100852.03;5038226;28;20569;-63
2023/03/18 06:44:52;;;;;;;1.60;1.50;;;;;;;10.22;100.00;100856.34;5043624;28;20180;-65
2023/03/18 06:47:18;;;;;;;1.55;1.33;;;;;;;10.32;100.00;100869.59;5043599;28;20079;-65
2023/03/18 06:49:44;;;;;;;1.50;1.35;;;;;;;10.45;100.00;100865.84;5043742;28;20037;-62
2023/03/18 06:52:09;;;;;;;1.50;1.40;;;;;;;10.63;100.00;100863.06;5045930;28;20114;-65
2023/03/18 06:54:35;;;;;;;1.48;1.38;;;;;;;10.76;100.00;100870.31;5045561;28;20029;-66
2023/03/18 06:57:00;;;;;;;1.30;1.20;;;;;;;10.91;100.00;100871.59;5039130;28;20021;-64
2023/03/18 06:59:26;;;;;;;1.40;1.30;;;;;;;11.03;100.00;100871.63;5044605;28;20044;-62
2023/03/18 07:01:51;;;;;;;1.50;1.40;;;;;;;11.09;100.00;100875.34;5044144;28;20120;-64
2023/03/18 07:04:17;;;;;;;1.50;1.27;;;;;;;11.21;100.00;100883.66;5044727;28;20032;-66
2023/03/18 07:06:42;;;;;;;1.65;1.40;;;;;;;11.22;100.00;100877.91;5039254;28;20025;-65
2023/03/18 07:09:10;;;;;;;1.30;1.20;;;;;;;11.36;100.00;100882.16;5045918;28;20037;-64
2023/03/18 07:11:35;;;;;;;1.40;1.30;;;;;;;11.51;100.00;100889.97;5038375;28;20029;-64
2023/03/18 07:14:00;;;;;;;1.15;1.10;;;;;;;11.47;100.00;100888.75;5046342;28;20029;-66
2023/03/18 07:16:26;;;;;;;1.65;1.20;;;;;;;11.41;100.00;100893.28;5041488;28;20127;-65
2023/03/18 07:18:52;;;;;;;1.30;1.20;;;;;;;11.38;100.00;100901.16;5044302;28;20060;-63
2023/03/18 07:21:18;;;;;;;1.23;1.13;;;;;;;11.41;100.00;100897.94;5047747;28;20047;-66
2023/03/18 07:23:43;;;;;;;1.25;1.15;;;;;;;11.41;100.00;100896.03;5050170;28;20327;-66
2023/03/18 07:26:11;;;;;;;1.40;1.30;;;;;;;11.50;100.00;100902.00;5050730;28;20029;-65
2023/03/18 07:28:36;;;;;;;1.33;1.23;;;;;;;11.56;100.00;100900.25;5048375;28;20017;-63
2023/03/18 07:31:02;;;;;;;1.33;1.23;;;;;;;11.58;100.00;100900.84;5042423;28;20375;-63
2023/03/18 07:33:28;;;;;;;1.10;1.10;;;;;;;11.65;100.00;100907.91;5049854;28;20036;-66
2023/03/18 07:35:53;;;;;;;1.35;1.25;;;;;;;11.83;100.00;100912.53;5043907;28;20022;-63
2023/03/18 07:38:18;;;;;;;1.27;1.13;;;;;;;12.03;100.00;100914.09;5047958;28;20037;-65
2023/03/18 07:40:44;;;;;;;2.05;1.20;;;;;;;11.97;100.00;100918.66;5048242;28;20120;-65
2023/03/18 07:43:09;;;;;;;1.20;1.10;;;;;;;11.93;100.00;100914.69;5046952;28;20021;-65
2023/03/18 07:45:34;;;;;;;1.38;1.27;;;;;;;11.97;100.00;100918.66;5046359;28;20040;-64
2023/03/18 07:48:00;;;;;;;1.00;1.00;;;;;;;11.99;100.00;100926.66;5045835;28;20124;-65
2023/03/18 07:50:26;;;;;;;1.27;1.17;;;;;;;12.18;100.00;100925.47;5043147;28;20694;-66
2023/03/18 07:52:51;;;;;;;1.00;1.00;;;;;;;12.44;100.00;100932.41;5040419;28;20033;-63
2023/03/18 07:55:17;;;;;;;1.30;1.20;;;;;;;12.43;100.00;100931.56;5045077;28;20082;-65
2023/03/18 07:57:42;;;;;;;1.00;1.00;;;;;;;12.50;100.00;100933.34;5041063;28;20562;-65
2023/03/18 08:00:11;;;;;;;1.17;1.10;;;;;;;12.55;100.00;100934.31;5045902;28;20037;-65
2023/03/18 08:02:36;;;;;;;1.15;1.15;;;;;;;12.65;100.00;100931.78;5046861;28;20454;-66
2023/03/18 08:05:02;;;;;;;0.90;0.90;;;;;;;12.83;100.00;100932.72;5048057;28;20105;-65
2023/03/18 08:07:28;;;;;;;1.10;1.00;;;;;;;13.09;100.00;100936.81;5048576;28;20467;-66
2023/03/18 08:09:54;;;;;;;1.13;1.02;;;;;;;13.56;100.00;100936.63;5044377;28;20086;-66
2023/03/18 08:12:19;;;;;;;1.23;1.17;;;;;;;14.10;96.17;100937.84;5047789;28;20498;-66
2023/03/18 08:14:44;;;;;;;0.90;0.90;;;;;;;14.34;92.25;100924.66;5047626;28;20048;-65
2023/03/18 08:17:10;;;;;;;0.80;0.80;;;;;;;14.52;90.29;100921.63;5047066;28;20078;-66
2023/03/18 08:19:35;;;;;;;0.80;0.80;;;;;;;14.86;88.00;100924.31;5046247;28;20033;-66
2023/03/18 08:22:01;;;;;;;1.05;1.00;;;;;;;14.97;87.79;100923.34;5048308;28;20108;-66
2023/03/18 08:24:26;;;;;;;0.90;0.90;;;;;;;14.92;88.88;100917.75;5048374;28;20094;-64
2023/03/18 08:26:52;;;;;;;0.65;0.65;;;;;;;15.01;87.92;100921.72;5047218;28;20379;-66
2023/03/18 08:29:17;;;;;;;0.95;0.95;;;;;;;15.20;85.01;100913.91;5046339;28;20476;-66
2023/03/18 08:31:43;;;;;;;0.80;0.80;;;;;;;15.50;83.08;100912.56;5042634;28;20420;-65
2023/03/18 08:34:09;;;;;;;0.90;0.77;;;;;;;15.80;81.97;100912.88;5046986;28;20067;-66
2023/03/18 08:36:34;;;;;;;0.65;0.65;;;;;;;16.17;79.35;100916.75;5047112;28;20021;-66
2023/03/18 08:39:00;;;;;;;5.97;2.03;;;;;;;16.03;78.42;100916.38;5046720;28;20044;-63
2023/03/18 08:41:26;;;;;;;2.72;1.17;;;;;;;15.86;79.73;100924.81;5047221;28;20025;-66
2023/03/18 08:43:52;;;;;;;0.85;0.80;;;;;;;16.01;80.41;100918.56;5046488;28;20029;-67
2023/03/18 08:46:17;;;;;;;0.77;0.77;;;;;;;16.49;77.87;100925.84;5046555;28;20116;-64
2023/03/18 08:48:43;;;;;;;0.70;0.70;;;;;;;16.78;76.59;100919.94;5046186;28;20032;-66
2023/03/18 08:51:09;;;;;;;1.83;0.98;;;;;;;16.93;74.20;100920.00;5043248;28;20056;-66
2023/03/18 08:53:36;;;;;;;0.70;0.70;;;;;;;16.84;73.39;100922.47;5046572;28;20029;-66
2023/03/18 08:56:02;;;;;;;0.70;0.70;;;;;;;16.68;75.06;100919.84;5047546;28;20052;-65
2023/03/18 08:58:28;;;;;;;1.20;0.80;;;;;;;16.61;75.14;100928.41;5045948;28;20017;-66
2023/03/18 09:00:54;;;;;;;0.70;0.70;;;;;;;16.66;73.95;100939.50;5045707;28;20107;-66
2023/03/18 09:03:20;;;;;;;0.77;0.70;;;;;;;17.08;73.59;100933.06;5046596;28;20036;-66
2023/03/18 09:05:50;;;;;;;0.60;0.60;;;;;;;17.98;69.09;100930.78;5046732;28;20111;-66
2023/03/18 09:08:16;;;;;;;0.70;0.70;;;;;;;18.87;66.70;100928.41;5043593;28;20084;-66
2023/03/18 09:10:44;;;;;;;1.23;0.60;;;;;;;18.79;64.96;100932.59;5043818;28;20455;-65
2023/03/18 09:13:09;;;;;;;0.75;0.60;;;;;;;18.71;64.63;100933.19;5046014;28;20052;-65
2023/03/18 09:15:34;;;;;;;0.70;0.70;;;;;;;18.99;65.64;100937.25;5045009;28;20025;-65
2023/03/18 09:18:00;;;;;;;0.60;0.60;;;;;;;19.38;62.38;100931.78;5046444;28;20503;-66
2023/03/18 09:20:25;;;;;;;0.70;0.70;;;;;;;19.56;61.05;100935.00;5046736;28;20356;-66
2023/03/18 09:22:51;;;;;;;0.57;0.57;;;;;;;19.66;61.35;100938.56;5046424;28;20757;-66
2023/03/18 09:25:17;;;;;;;0.60;0.60;;;;;;;20.23;60.13;100935.38;5046471;28;20024;-66
2023/03/18 09:27:42;;;;;;;0.75;0.50;;;;;;;20.01;60.27;100933.03;5041541;28;20029;-63
2023/03/18 09:30:09;;;;;;;0.50;0.50;;;;;;;19.31;61.39;100936.84;5046579;28;20034;-66
2023/03/18 09:32:35;;;;;;;0.70;0.70;;;;;;;18.75;62.93;100948.19;5044564;28;20032;-65
2023/03/18 09:35:00;;;;;;;0.60;0.60;;;;;;;18.09;64.95;100942.72;5046800;28;20021;-66
2023/03/18 09:37:26;;;;;;;0.50;0.50;;;;;;;18.05;66.94;100942.47;5044963;28;20013;-66
2023/03/18 09:39:51;;;;;;;0.60;0.60;;;;;;;17.87;66.05;100946.59;5044458;28;20064;-66
2023/03/18 09:42:36;;;;;;;0.60;0.60;;;;;;;18.11;68.62;100949.69;5044810;28;20040;-63
2023/03/18 09:45:09;;;;;;;0.60;0.60;;;;;;;18.70;63.49;100950.16;5042259;28;20048;-64
2023/03/18 09:48:12;;;;;;;0.50;0.50;;;;;;;19.47;63.34;100945.94;5044096;28;20052;-65
2023/03/18 09:50:46;;;;;;;0.60;0.60;;;;;;;20.66;58.34;100942.75;5045639;28;20484;-66
2023/03/18 09:53:37;;;;;;;0.63;0.63;;;;;;;21.95;57.90;100928.72;5045890;28;20040;-66
2023/03/18 09:56:04;;;;;;;0.50;0.50;;;;;;;23.20;50.96;100941.78;5034590;28;20427;-66
2023/03/18 09:58:40;;;;;;;0.50;0.50;;;;;;;24.19;46.62;100945.66;5045098;28;20446;-65
2023/03/18 10:01:10;;;;;;;0.45;0.45;;;;;;;25.04;44.83;100940.78;5052598;28;20116;-66
2023/03/18 10:03:45;;;;;;;0.47;0.47;;;;;;;25.49;45.66;100946.19;5066001;28;20313;-66
2023/03/18 10:06:19;;;;;;;0.57;0.50;;;;;;;26.34;41.79;100952.16;5064744;28;20032;-65
2023/03/18 10:09:24;;;;;;;0.40;0.40;;;;;;;26.74;40.86;100941.47;5040996;28;20024;-64
2023/03/18 10:11:52;;;;;;;0.50;0.50;;;;;;;26.39;39.67;100944.34;5045660;28;20112;-65
2023/03/18 10:14:29;;;;;;;0.50;0.40;;;;;;;25.84;40.79;100947.91;5045130;28;20079;-65
2023/03/18 10:17:13;;;;;;;0.40;0.40;;;;;;;25.88;42.79;100939.63;5043191;28;20194;-66
2023/03/18 10:19:47;;;;;;;0.80;0.40;;;;;;;25.43;42.11;100941.91;5044872;28;20087;-64
2023/03/18 10:22:19;;;;;;;0.50;0.50;;;;;;;25.63;39.51;100936.44;5045404;28;20536;-63
2023/03/18 10:24:50;;;;;;;0.40;0.40;;;;;;;26.56;39.39;100937.91;5045192;28;20086;-65
2023/03/18 10:27:46;;;;;;;0.50;0.40;;;;;;;27.64;38.30;100946.75;5044057;28;20487;-65
2023/03/18 10:30:45;;;;;;;0.40;0.40;;;;;;;27.22;38.90;100940.25;5044277;28;20120;-65
2023/03/18 10:33:28;;;;;;;0.70;0.47;;;;;;;26.79;36.63;100946.09;5044692;28;20163;-63
2023/03/18 10:36:02;;;;;;;0.77;0.30;;;;;;;27.29;35.73;100954.66;5046743;28;20021;-64
2023/03/18 10:38:36;;;;;;;0.50;0.50;;;;;;;26.79;36.42;100948.91;5045862;28;20183;-65
2023/03/18 10:41:13;;;;;;;0.38;0.38;;;;;;;26.50;35.76;100939.22;5046093;28;20167;-63
2023/03/18 10:43:38;;;;;;;0.43;0.40;;;;;;;25.66;37.50;100948.22;5046158;28;20376;-65
2023/03/18 10:46:06;;;;;;;0.32;0.30;;;;;;;24.76;39.78;100940.19;5045571;28;20029;-64
2023/03/18 10:48:46;;;;;;;0.50;0.50;;;;;;;24.49;41.26;100944.03;5042627;28;20040;-64
2023/03/18 10:51:38;;;;;;;0.45;0.43;;;;;;;24.30;41.55;100939.44;5046933;28;20032;-65
2023/03/18 10:54:34;;;;;;;0.50;0.40;;;;;;;23.12;43.22;100945.31;5046716;28;20440;-65
2023/03/18 10:57:00;;;;;;;0.43;0.40;;;;;;;22.07;43.77;100936.63;5046357;28;20020;-65
2023/03/18 10:59:27;;;;;;;0.40;0.40;;;;;;;21.74;44.90;100940.19;5046182;28;20082;-63
2023/03/18 11:01:58;;;;;;;0.90;0.45;;;;;;;20.97;47.87;100928.41;5045670;28;20032;-65
2023/03/18 11:04:27;;;;;;;0.40;0.40;;;;;;;20.15;50.35;100934.84;5045586;28;20459;-65
2023/03/18 11:07:04;;;;;;;0.40;0.40;;;;;;;19.68;53.11;100941.09;5044118;28;20025;-64
2023/03/18 11:09:38;;;;;;;0.70;0.40;;;;;;;19.11;52.76;100939.69;5047464;28;20343;-65
2023/03/18 11:12:06;;;;;;;0.52;0.40;;;;;;;18.72;54.33;100932.09;5046896;28;20067;-65
2023/03/18 11:14:32;;;;;;;0.52;0.40;;;;;;;18.32;55.08;100939.38;5045653;28;20141;-63
2023/03/18 11:17:17;;;;;;;0.40;0.40;;;;;;;17.94;56.44;100937.16;5043310;28;20017;-64
2023/03/18 11:19:48;;;;;;;1.05;0.50;;;;;;;17.78;59.59;100928.00;5044171;28;20021;-62
2023/03/18 11:22:23;;;;;;;0.65;0.50;;;;;;;17.60;58.14;100924.63;5044535;28;20145;-62
2023/03/18 11:25:01;;;;;;;0.57;0.57;;;;;;;17.44;58.55;100928.47;5044170;28;20116;-65